Topaz, Utah
Current Conditions -  °F | °C
As of 12:55 AM on Friday 24 Oct 2014 (Local Time) from KDTA Reporting Station
Clear Clear  
Wind Chill: 57°   Ceiling: Unl
Heat Index: 57°   Visibility: 10mi
Dew Point: 27°   Wind: 10mph
Humidity: 31%   Direction: 160°SSE
Pressure: 30.14"   Gusts: NA
Location:  39.4463°N, 112.85°W
Report Text: KDTA 240655Z AUTO 16009KT 10SM CLR 14/M03 A3014 RMK AO1 T01391030 403510000
Loading
Personal Weather Stations






























Interactive Weather Map
Tropical Storm Tracking
New forecast layout! Learn more

10-Day Weather Forecast

Advertisements
Track Severe Weather on mobile